Fiorela — D5MK2 — position and weather

sailwx.info

Track history (hours):
 
Tides and Currents Weather Stations Pressure Air Temp Water Temp Dewpoint Dewpoint Depression Visibility Wind Speed Wind Dir Waves Ship Positions

Fiorela

Last reported at 2018-Feb-17 16:54 UTC. Time now 2018-Feb-22 09:19 UTC.
Position N 25°07' E 122°41'.

Length 229 m; draft 12 m.

Type: Cargo ship. MMSI: 636017716.

Date/timePositionNaut miles runAvg speedWind from/ knotsBaromVisibWave heightAir tempDewpointWater temp
2018-Feb-17 16:54N 25°07' E 122°41'512.7
2018-Feb-17 16:30N 25°03' E 122°39'612.7
2018-Feb-17 16:00N 24°57' E 122°37'713.2
2018-Feb-17 15:31N 24°50' E 122°35'713.4
2018-Feb-17 15:01N 24°44' E 122°32'713.5
2018-Feb-17 14:30N 24°38' E 122°29'713.3
2018-Feb-17 14:00N 24°32' E 122°27'713.4
2018-Feb-17 13:30N 24°25' E 122°24'713.1
2018-Feb-17 13:00N 24°19' E 122°22'612.7
2018-Feb-17 12:30N 24°13' E 122°20'612.5
2018-Feb-17 12:00N 24°07' E 122°18'612.6
2018-Feb-17 11:30N 24°01' E 122°16'612.6
2018-Feb-17 11:00N 23°55' E 122°14'8911.2
2018-Feb-17 03:02N 22°28' E 121°51'2 9.5
2018-Feb-17 02:46N 22°26' E 121°50'  
Track history (hours):
 
Tides and Currents Weather Stations Pressure Air Temp Water Temp Dewpoint Dewpoint Depression Visibility Wind Speed Wind Dir Waves Ship Positions

Fiorela

Last reported at 2018-Feb-17 16:54 UTC. Time now 2018-Feb-22 09:19 UTC.
Position N 25°07' E 122°41'.

Length 229 m; draft 12 m.

Type: Cargo ship. MMSI: 636017716.

Date/timePositionNaut miles runAvg speedWind from/ knotsBaromVisibWave heightAir tempDewpointWater temp
2018-Feb-17 16:54N 25°07' E 122°41'512.7
2018-Feb-17 16:30N 25°03' E 122°39'612.7
2018-Feb-17 16:00N 24°57' E 122°37'713.2
2018-Feb-17 15:31N 24°50' E 122°35'713.4
2018-Feb-17 15:01N 24°44' E 122°32'713.5
2018-Feb-17 14:30N 24°38' E 122°29'713.3
2018-Feb-17 14:00N 24°32' E 122°27'713.4
2018-Feb-17 13:30N 24°25' E 122°24'713.1
2018-Feb-17 13:00N 24°19' E 122°22'612.7
2018-Feb-17 12:30N 24°13' E 122°20'612.5
2018-Feb-17 12:00N 24°07' E 122°18'612.6
2018-Feb-17 11:30N 24°01' E 122°16'612.6
2018-Feb-17 11:00N 23°55' E 122°14'8911.2
2018-Feb-17 03:02N 22°28' E 121°51'2 9.5
2018-Feb-17 02:46N 22°26' E 121°50'  

Dump ship's entire track history